Lawton Fort Sill Regional Airport
KLAW : now visible

Airfield :











YOU CAN JOIN US ON...

 
LOGIN :

Register | Disclaimer

   EN    FR    IT 

 









Legend :    VFR   Marginal VFR   IFR   Intensive IFR   Very Intensive IFR
Visi :
Ceiling :
>= 8 km
>= 3000ft
5 to 8 km
1000 to 3000 ft
1500m to 5 km
500 to 1000 ft
800 to 1500m
200 to 500 ft
< 800m
< 200 ft
Symbols :   Thunderstorms  Fog  Heavy snow  Heavy precipitations  Wind > 20 kt







- Airport Elevation : 1110 ft


KLAW - Lawton Fort Sill Regional

CURRENT METAR :
  • 201953Z 28004KT 10SM VCTS BKN028 OVC050 29/23 A2991 RMK AO2 LTG DSNT SE AND S SLP115 T02890228

EXPIRED METARs :
  • 201940Z 00000KT 10SM VCTS BKN028 BKN034 OVC050 29/23 A2991 RMK AO2 LTG DSNT SE AND S T02940228
  • 201853Z 24005KT 10SM BKN026 OVC033 28/22 A2994 RMK AO2 LTG DSNT SE SLP125 T02830222
  • 201753Z VRB05KT 10SM BKN022 BKN120 28/22 A2994 RMK AO2 SLP126 T02830222 10283 20206 58010

TAF KLAW
Valid from the 20 at 20:00 until the 21 at 18:00 UTC


201957Z 2020/2118 14010KT P6SM FEW025 BKN040
TEMPO 2020/2024 4SM TSRA BKN028CB
FM210000 16010KT P6SM BKN045 OVC100
TEMPO 2100/2104 4SM TSRA BKN040CB
FM211200 17013G17KT P6SM BKN015 BKN045
No reported NOTAMs for that airfield.



MET'MAP, your aeronautical weather chart ! - Copyright ORBIFLY December 2007 - Disclaimer

ORBIFLY MET'MAP TEAM :

Programming & Development : Alexandra Zaïnal
Concept & Development : Baudouin d'Aumeries
Co-Development & Prog : Marc-Olivier Méhu
Technical & hardware support : Manuel Goepfert

Contact : metmap@orbifly.com




SOURCES & CREDITS :

   NOAA       Earth
Advisory